»·PEaware :: N359W KRDD-KMFR

N359W :: KRDD-KMFR

FLIGHT INFORMATION

Flight Status: Arrived
Operator: Privately registered:
United States
More flights under this callsign
Pilot: Anonymous 18613 (18613)
Aircraft: BEECH AIRCRAFT BARON
(BE58)
More flights by this aircraft type
Origin: KRDD Redding Mun
United States
Destination: KMFR Rogue Valley Intl-Medford
United States
More flights between these airports :: More routes between these airports
Route:
File this flight plan on PilotEdge
Remarks:
Altitude:
(Current/Filed)
11,000ft
Speed:
(Current/Filed)
185kts
Departed: 05-Jul-18 02:57 PM
Arrived: 05-Jul-18 03:36 PM
Distance/Time
Traveled:
115nm/0:39
Distance/Time
To Go:
Arrived

Flight Plot

Page will automatically refresh every two minutes.

Flight plan parsing failed; only flown route is shown


Map Options




Map Legend


Flown Route
Filed Route
Departure Airport
Arrival Airport
Navaid (VOR, NDB)
Fix

Horizontal Profiles

Position Reports

Time Latitude Longitude Heading Altitude Ground
Speed
05-Jul-18 14:46 40.508696 -122.297450 359 505ft 0kts
05-Jul-18 14:47 40.508696 -122.297450 359 505ft 0kts
05-Jul-18 14:48 40.508696 -122.297450 359 505ft 0kts
05-Jul-18 14:49 40.508696 -122.297450 359 505ft 0kts
05-Jul-18 14:50 40.508696 -122.297450 359 505ft 0kts
05-Jul-18 14:51 40.508696 -122.297450 359 505ft 0kts
05-Jul-18 14:53 40.508696 -122.297450 359 505ft 0kts
05-Jul-18 14:54 40.508433 -122.297218 57 505ft 11kts
05-Jul-18 14:55 40.514549 -122.296283 0 505ft 32kts
05-Jul-18 14:56 40.520232 -122.295875 87 505ft 0kts
05-Jul-18 14:57 40.520248 -122.295314 89 505ft 9kts
05-Jul-18 14:58 40.508034 -122.294594 178 926ft 85kts
05-Jul-18 14:59 40.507507 -122.269880 14 2068ft 119kts
05-Jul-18 15:00 40.539085 -122.270166 7 3490ft 118kts
05-Jul-18 15:01 40.572042 -122.267785 345 4776ft 121kts
05-Jul-18 15:02 40.608438 -122.280393 343 5474ft 160kts
05-Jul-18 15:03 40.653460 -122.295274 343 6158ft 168kts
05-Jul-18 15:04 40.698765 -122.310128 343 6907ft 169kts
05-Jul-18 15:05 40.744621 -122.325160 343 7635ft 171kts
05-Jul-18 15:06 40.789913 -122.342836 348 8325ft 173kts
05-Jul-18 15:07 40.838010 -122.350621 351 9014ft 175kts
05-Jul-18 15:08 40.886391 -122.358028 351 9678ft 176kts
05-Jul-18 15:09 40.935297 -122.365426 351 10318ft 177kts
05-Jul-18 15:10 40.985432 -122.372986 351 10496ft 198kts
05-Jul-18 15:11 41.038882 -122.392727 343 10493ft 204kts
05-Jul-18 15:12 41.093823 -122.411550 342 10492ft 204kts
05-Jul-18 15:13 41.146954 -122.430299 342 10492ft 202kts
05-Jul-18 15:14 41.201267 -122.449619 342 10502ft 202kts
05-Jul-18 15:15 41.255518 -122.468816 342 10510ft 202kts
05-Jul-18 15:16 41.309811 -122.488113 342 10514ft 203kts
05-Jul-18 15:17 41.364303 -122.507514 341 10592ft 201kts
05-Jul-18 15:18 41.418886 -122.527010 341 10597ft 204kts
05-Jul-18 15:19 41.473895 -122.546671 341 10598ft 205kts
05-Jul-18 15:20 41.529061 -122.566425 341 10598ft 205kts
05-Jul-18 15:21 41.584155 -122.586189 341 10598ft 206kts
05-Jul-18 15:22 41.639423 -122.606071 341 10598ft 206kts
05-Jul-18 15:23 41.694666 -122.625953 341 10599ft 206kts
05-Jul-18 15:24 41.749900 -122.645871 341 10599ft 206kts
05-Jul-18 15:25 41.804528 -122.665610 341 10601ft 206kts
05-Jul-18 15:26 41.859988 -122.685678 341 10601ft 206kts
05-Jul-18 15:27 41.915314 -122.705737 341 10601ft 206kts
05-Jul-18 15:28 41.970819 -122.725892 340 10595ft 206kts
05-Jul-18 15:29 42.026330 -122.746073 340 10227ft 210kts
05-Jul-18 15:30 42.082491 -122.766549 340 9298ft 207kts
05-Jul-18 15:31 42.135370 -122.785856 339 8384ft 196kts
05-Jul-18 15:32 42.186699 -122.804645 339 7433ft 188kts
05-Jul-18 15:33 42.236355 -122.822846 340 6495ft 182kts
05-Jul-18 15:34 42.281668 -122.832865 347 3906ft 160kts
05-Jul-18 15:35 42.319031 -122.844731 340 2061ft 125kts
05-Jul-18 15:36 42.344351 -122.856818 337 1808ft 86kts
05-Jul-18 15:37 42.365733 -122.868444 335 1334ft 20kts
05-Jul-18 15:38 42.368748 -122.870941 256 1334ft 0kts
05-Jul-18 15:39 42.369801 -122.873440 290 1334ft 10kts

Navigation Log

Ident Type
Flight plan parsing failed, navigation log unavailable